Time,TemperatureF,DewpointF,PressureIn,WindDirection,WindDirectionDegrees,WindSpeedMPH,WindSpeedGustMPH,Humidity,HourlyPrecipIn,Conditions,Clouds,dailyrainin,SolarRadiationWatts/m^2,SoftwareType,DateUTC
2013-02-27 00:12:00,15.0,11.0,-100.00,SE,145,3.0,4.0,83,-99.99,,,0.00,0.000000,,2013-02-27 07:12:00,
2013-02-27 01:11:00,13.0,9.0,-100.00,ESE,118,4.0,5.0,83,-99.99,,,0.00,0.000000,,2013-02-27 08:11:00,
2013-02-27 02:11:00,11.0,7.0,-100.00,ESE,106,6.0,7.0,83,-99.99,,,0.00,0.000000,,2013-02-27 09:11:00,
2013-02-27 03:12:00,11.0,7.0,-100.00,ESE,123,4.0,5.0,82,-99.99,,,0.00,0.000000,,2013-02-27 10:12:00,
2013-02-27 04:12:00,6.0,3.0,-100.00,NNE,33,5.0,7.0,89,-99.99,,,0.00,0.000000,,2013-02-27 11:12:00,
2013-02-27 05:12:00,4.0,1.0,-100.00,NNE,18,4.0,5.0,88,-99.99,,,0.00,0.000000,,2013-02-27 12:12:00,
2013-02-27 06:11:00,2.0,-2.0,-100.00,NNE,32,1.0,2.0,85,-99.99,,,-99.99,0.000000,,2013-02-27 13:11:00,
2013-02-27 07:12:00,3.0,-1.0,-100.00,NNE,28,1.0,2.0,84,-99.99,,,-99.99,0.000000,,2013-02-27 14:12:00,
2013-02-27 08:12:00,3.0,-1.0,-100.00,North,8,1.0,2.0,84,-99.99,,,0.00,7.790000,,2013-02-27 15:12:00,
2013-02-27 09:11:00,4.0,1.0,-100.00,North,0,0.0,0.0,85,-99.99,,,0.00,96.459999,,2013-02-27 16:11:00,
2013-02-27 10:11:00,7.0,4.0,-100.00,North,0,0.0,0.0,85,-99.99,,,-99.99,214.429993,,2013-02-27 17:11:00,
2013-02-27 11:11:00,11.0,7.0,-100.00,NNW,329,2.0,3.0,84,-99.99,,,-99.99,497.540009,,2013-02-27 18:11:00,
2013-02-27 13:11:00,23.0,15.0,-100.00,SE,129,2.0,4.0,70,-99.99,,,0.00,743.580017,,2013-02-27 20:11:00,
2013-02-27 14:11:00,29.0,17.0,-100.00,NNW,331,1.0,2.0,59,-99.99,,,-99.99,733.349976,,2013-02-27 21:11:00,
2013-02-27 15:11:00,33.0,17.0,-100.00,NNW,330,0.0,0.0,52,-99.99,,,0.00,673.489990,,2013-02-27 22:11:00,
2013-02-27 17:11:00,31.0,18.0,-100.00,SSE,158,7.0,11.0,56,-99.99,,,0.00,361.209991,,2013-02-28 00:11:00,
2013-02-27 18:11:00,27.0,15.0,-100.00,SE,142,5.0,7.0,61,-99.99,,,0.00,91.580002,,2013-02-28 01:11:00,
2013-02-27 19:11:00,23.0,14.0,-100.00,SE,130,5.0,7.0,66,-99.99,,,0.00,16.040001,,2013-02-28 02:11:00,
2013-02-27 20:11:00,24.0,13.0,-100.00,SSE,152,3.0,6.0,61,-99.99,,,0.00,0.000000,,2013-02-28 03:11:00,
2013-02-27 21:11:00,21.0,12.0,-100.00,NNW,347,4.0,6.0,69,-99.99,,,0.00,0.000000,,2013-02-28 04:11:00,
2013-02-27 22:11:00,21.0,13.0,-100.00,NNE,25,3.0,5.0,73,-99.99,,,-99.99,0.000000,,2013-02-28 05:11:00,
2013-02-27 23:11:00,12.0,8.0,-100.00,NNE,12,7.0,9.0,82,-99.99,,,0.00,0.000000,,2013-02-28 06:11:00,